createdAt,value
2018-05-12T00:01:12.951Z,1012.29
2018-05-12T00:02:12.899Z,1012.28
2018-05-12T00:03:12.764Z,1012.28
2018-05-12T00:05:55.009Z,1012.34
2018-05-12T00:06:54.928Z,1012.34
2018-05-12T00:07:54.759Z,1012.33
2018-05-12T00:10:36.950Z,1012.31
2018-05-12T00:11:36.892Z,1012.31
2018-05-12T00:12:36.787Z,1012.32
2018-05-12T00:13:37.717Z,1012.33
2018-05-12T00:14:36.623Z,1012.34
2018-05-12T00:17:18.448Z,1012.35
2018-05-12T00:18:18.382Z,1012.33
2018-05-12T00:19:18.267Z,1012.31
2018-05-12T00:20:18.305Z,1012.34
2018-05-12T00:21:18.130Z,1012.32
2018-05-12T00:22:18.036Z,1012.28
2018-05-12T00:23:17.951Z,1012.32
2018-05-12T00:25:59.959Z,1012.29
2018-05-12T00:26:59.861Z,1012.29
2018-05-12T00:27:59.786Z,1012.28
2018-05-12T00:28:59.725Z,1012.31
2018-05-12T00:29:59.604Z,1012.27
2018-05-12T00:30:59.581Z,1012.27
2018-05-12T00:31:59.450Z,1012.26
2018-05-12T00:34:41.427Z,1012.24
2018-05-12T00:35:41.440Z,1012.23
2018-05-12T00:36:41.296Z,1012.21
2018-05-12T00:37:41.255Z,1012.25
2018-05-12T00:38:41.119Z,1012.21
2018-05-12T00:39:41.070Z,1012.20
2018-05-12T00:40:40.977Z,1012.19
2018-05-12T00:41:40.910Z,1012.21
2018-05-12T00:42:40.824Z,1012.18
2018-05-12T00:43:40.771Z,1012.17
2018-05-12T00:44:40.633Z,1012.19
2018-05-12T00:45:41.225Z,1012.20
2018-05-12T00:46:40.487Z,1012.18
2018-05-12T00:49:22.425Z,1012.15
2018-05-12T00:50:22.364Z,1012.15
2018-05-12T00:51:22.301Z,1012.15
2018-05-12T00:52:22.299Z,1012.13
2018-05-12T00:53:22.132Z,1012.16
2018-05-12T00:54:22.037Z,1012.15
2018-05-12T00:55:21.978Z,1012.10
2018-05-12T00:56:21.882Z,1012.11
2018-05-12T00:57:21.823Z,1012.07
2018-05-12T00:58:21.749Z,1012.07
2018-05-12T00:59:21.646Z,1012.04
2018-05-12T01:00:21.638Z,1012.03
2018-05-12T01:01:21.482Z,1012.02
2018-05-12T01:02:22.460Z,1012.00
2018-05-12T01:03:21.331Z,1011.98
2018-05-12T01:04:21.252Z,1012.04
2018-05-12T01:05:21.175Z,1012.00
2018-05-12T01:06:21.211Z,1012.00
2018-05-12T01:07:21.008Z,1012.01
2018-05-12T01:10:02.940Z,1011.97
2018-05-12T01:11:02.881Z,1011.95
2018-05-12T01:12:02.789Z,1011.95
2018-05-12T01:13:02.740Z,1012.02
2018-05-12T01:14:02.621Z,1011.98
2018-05-12T01:15:02.553Z,1012.02
2018-05-12T01:16:02.453Z,1012.00
2018-05-12T01:17:02.383Z,1012.00
2018-05-12T01:18:02.322Z,1011.96
2018-05-12T01:19:02.221Z,1012.01
2018-05-12T01:20:02.141Z,1011.97
2018-05-12T01:21:02.078Z,1011.98
2018-05-12T01:22:01.986Z,1011.96
2018-05-12T01:23:01.981Z,1011.96
2018-05-12T01:24:01.827Z,1011.93
2018-05-12T01:25:01.802Z,1011.91
2018-05-12T01:26:01.682Z,1011.90
2018-05-12T01:27:01.589Z,1011.91
2018-05-12T01:28:01.529Z,1011.87
2018-05-12T01:29:01.525Z,1011.91
2018-05-12T01:30:01.350Z,1011.88
2018-05-12T01:31:01.277Z,1011.87
2018-05-12T01:32:01.195Z,1011.86
2018-05-12T01:33:01.147Z,1011.90
2018-05-12T01:34:01.037Z,1011.86
2018-05-12T01:35:00.967Z,1011.87
2018-05-12T01:36:00.873Z,1011.84
2018-05-12T01:37:00.802Z,1011.90
2018-05-12T01:38:00.743Z,1011.91
2018-05-12T01:39:01.671Z,1011.92
2018-05-12T01:40:00.560Z,1011.88
2018-05-12T01:42:42.431Z,1011.87
2018-05-12T01:43:43.406Z,1011.80
2018-05-12T01:44:42.272Z,1011.87
2018-05-12T01:45:42.206Z,1011.86
2018-05-12T01:46:42.158Z,1011.85
2018-05-12T01:47:42.233Z,1011.86
2018-05-12T01:48:42.243Z,1011.85
2018-05-12T01:49:42.110Z,1011.84
2018-05-12T01:50:41.820Z,1011.86
2018-05-12T01:51:41.733Z,1011.90
2018-05-12T01:52:41.639Z,1011.83
2018-05-12T01:53:42.770Z,1011.87
2018-05-12T01:54:41.510Z,1011.87
2018-05-12T01:55:41.411Z,1011.86
2018-05-12T01:56:41.343Z,1011.89
2018-05-12T01:57:41.266Z,1011.86
2018-05-12T01:58:41.192Z,1011.82
2018-05-12T01:59:41.133Z,1011.85
2018-05-12T02:00:41.016Z,1011.87
2018-05-12T02:03:22.956Z,1011.90
2018-05-12T02:06:04.971Z,1011.85
2018-05-12T02:07:04.879Z,1011.86
2018-05-12T02:08:04.785Z,1011.90
2018-05-12T02:09:04.706Z,1011.86
2018-05-12T02:10:04.643Z,1011.85
2018-05-12T02:11:04.565Z,1011.86
2018-05-12T02:12:04.467Z,1011.86
2018-05-12T02:13:04.400Z,1011.84
2018-05-12T02:14:04.309Z,1011.86
2018-05-12T02:15:04.266Z,1011.90
2018-05-12T02:16:04.192Z,1011.87
2018-05-12T02:17:04.083Z,1011.86
2018-05-12T02:18:03.995Z,1011.91
2018-05-12T02:19:03.923Z,1011.90
2018-05-12T02:20:03.899Z,1011.88
2018-05-12T02:21:03.774Z,1011.90
2018-05-12T02:22:03.672Z,1011.89
2018-05-12T02:23:03.617Z,1011.89
2018-05-12T02:24:03.520Z,1011.89
2018-05-12T02:25:03.467Z,1011.92
2018-05-12T02:26:03.386Z,1011.90
2018-05-12T02:27:03.309Z,1011.91
2018-05-12T02:28:03.211Z,1011.90
2018-05-12T02:30:45.698Z,1011.87
2018-05-12T02:31:45.509Z,1011.86
2018-05-12T02:32:45.509Z,1011.83
2018-05-12T02:33:45.224Z,1011.84
2018-05-12T02:34:45.131Z,1011.87
2018-05-12T02:35:45.058Z,1011.84
2018-05-12T02:36:44.997Z,1011.83
2018-05-12T02:37:44.916Z,1011.84
2018-05-12T02:38:44.826Z,1011.84
2018-05-12T02:39:44.741Z,1011.88
2018-05-12T02:40:44.656Z,1011.86
2018-05-12T02:41:44.630Z,1011.85
2018-05-12T02:42:44.500Z,1011.90
2018-05-12T02:43:44.429Z,1011.87
2018-05-12T02:44:44.334Z,1011.89
2018-05-12T02:45:44.269Z,1011.88
2018-05-12T02:46:44.212Z,1011.86
2018-05-12T02:47:44.116Z,1011.89
2018-05-12T02:48:44.021Z,1011.85
2018-05-12T02:49:43.962Z,1011.85
2018-05-12T02:50:43.873Z,1011.87
2018-05-12T02:51:43.816Z,1011.83
2018-05-12T02:52:43.722Z,1011.83
2018-05-12T02:53:43.644Z,1011.85
2018-05-12T02:54:43.573Z,1011.85
2018-05-12T02:55:43.486Z,1011.86
2018-05-12T02:56:43.415Z,1011.90
2018-05-12T02:59:25.475Z,1011.89
2018-05-12T03:00:25.401Z,1011.89
2018-05-12T03:01:25.294Z,1011.89
2018-05-12T03:02:25.244Z,1011.92
2018-05-12T03:03:25.154Z,1011.90
2018-05-12T03:04:25.109Z,1011.88
2018-05-12T03:05:24.983Z,1011.91
2018-05-12T03:06:24.936Z,1011.93
2018-05-12T03:07:24.845Z,1011.92
2018-05-12T03:08:24.899Z,1011.98
2018-05-12T03:09:24.665Z,1011.94
2018-05-12T03:10:24.590Z,1011.94
2018-05-12T03:11:24.509Z,1011.92
2018-05-12T03:12:25.467Z,1011.91
2018-05-12T03:13:24.383Z,1011.94
2018-05-12T03:16:06.456Z,1011.94
2018-05-12T03:17:06.408Z,1011.92
2018-05-12T03:18:06.302Z,1011.90
2018-05-12T03:19:06.247Z,1011.91
2018-05-12T03:20:06.142Z,1011.93
2018-05-12T03:21:06.087Z,1011.89
2018-05-12T03:22:06.008Z,1011.91
2018-05-12T03:23:05.910Z,1011.90
2018-05-12T03:24:05.817Z,1011.89
2018-05-12T03:25:05.775Z,1011.94
2018-05-12T03:26:05.668Z,1011.91
2018-05-12T03:27:05.602Z,1011.96
2018-05-12T03:28:05.536Z,1011.95
2018-05-12T03:29:05.442Z,1011.93
2018-05-12T03:30:05.344Z,1011.93
2018-05-12T03:31:05.284Z,1011.93
2018-05-12T03:32:05.199Z,1011.93
2018-05-12T03:33:05.136Z,1011.95
2018-05-12T03:34:05.033Z,1011.94
2018-05-12T03:35:04.970Z,1011.94
2018-05-12T03:36:04.877Z,1011.92
2018-05-12T03:37:04.797Z,1011.88
2018-05-12T03:38:04.748Z,1011.92
2018-05-12T03:39:05.656Z,1011.91
2018-05-12T03:40:04.560Z,1011.87
2018-05-12T03:41:04.486Z,1011.92
2018-05-12T03:42:04.399Z,1011.93
2018-05-12T03:43:04.319Z,1011.94
2018-05-12T03:44:04.256Z,1011.90
2018-05-12T03:46:46.463Z,1011.90
2018-05-12T03:47:46.392Z,1011.92
2018-05-12T03:48:46.332Z,1011.91
2018-05-12T03:49:46.239Z,1011.90
2018-05-12T03:50:46.150Z,1011.93
2018-05-12T03:51:46.078Z,1011.94
2018-05-12T03:52:45.993Z,1011.93
2018-05-12T03:53:45.924Z,1011.92
2018-05-12T03:54:45.850Z,1011.90
2018-05-12T03:55:45.767Z,1011.92
2018-05-12T03:56:45.668Z,1011.94
2018-05-12T03:57:45.604Z,1011.93
2018-05-12T03:58:45.507Z,1011.97
2018-05-12T03:59:45.471Z,1011.98
2018-05-12T04:00:45.350Z,1011.98
2018-05-12T04:01:45.287Z,1012.00
2018-05-12T04:02:45.206Z,1011.98
2018-05-12T04:05:27.491Z,1012.02
2018-05-12T04:06:27.397Z,1012.01
2018-05-12T04:07:27.311Z,1012.00
2018-05-12T04:08:27.234Z,1012.00
2018-05-12T04:09:27.156Z,1012.02
2018-05-12T04:10:27.103Z,1012.01
2018-05-12T04:11:27.009Z,1011.97
2018-05-12T04:14:08.994Z,1011.98
2018-05-12T04:15:09.912Z,1011.97
2018-05-12T04:16:08.844Z,1011.98
2018-05-12T04:17:08.735Z,1012.00
2018-05-12T04:18:08.651Z,1011.99
2018-05-12T04:19:08.581Z,1011.98
2018-05-12T04:20:08.508Z,1011.98
2018-05-12T04:21:08.511Z,1011.95
2018-05-12T04:22:08.360Z,1011.92
2018-05-12T04:24:50.473Z,1011.89
2018-05-12T04:25:50.400Z,1011.92
2018-05-12T04:26:50.339Z,1011.94
2018-05-12T04:27:50.241Z,1011.98
2018-05-12T04:28:50.149Z,1011.92
2018-05-12T04:31:31.980Z,1011.96
2018-05-12T04:32:32.926Z,1011.95
2018-05-12T04:33:31.820Z,1011.92
2018-05-12T04:34:31.747Z,1011.94
2018-05-12T04:35:31.665Z,1011.91
2018-05-12T04:38:13.497Z,1011.97
2018-05-12T04:39:13.401Z,1011.95
2018-05-12T04:40:13.321Z,1011.98
2018-05-12T04:41:13.250Z,1011.97
2018-05-12T04:42:13.182Z,1011.99
2018-05-12T04:44:54.973Z,1011.98
2018-05-12T04:45:54.908Z,1012.00
2018-05-12T04:46:54.839Z,1011.99
2018-05-12T04:47:54.759Z,1011.98
2018-05-12T04:48:54.667Z,1011.94
2018-05-12T04:49:54.587Z,1011.98
2018-05-12T04:50:54.506Z,1011.95
2018-05-12T04:51:54.479Z,1011.94
2018-05-12T04:52:54.367Z,1011.88
2018-05-12T04:53:54.279Z,1011.93
2018-05-12T04:54:54.200Z,1011.93
2018-05-12T04:55:54.111Z,1011.95
2018-05-12T04:58:36.009Z,1011.93
2018-05-12T04:59:35.906Z,1011.95
2018-05-12T05:00:35.821Z,1011.96
2018-05-12T05:01:35.759Z,1011.96
2018-05-12T05:02:35.669Z,1011.94
2018-05-12T05:03:35.622Z,1011.91
2018-05-12T05:06:17.495Z,1011.98
2018-05-12T05:07:17.419Z,1011.96
2018-05-12T05:08:17.397Z,1011.95
2018-05-12T05:10:59.487Z,1011.98
2018-05-12T05:11:59.421Z,1011.98
2018-05-12T05:12:59.330Z,1012.00
2018-05-12T05:14:01.561Z,1012.01
2018-05-12T05:14:59.176Z,1012.00
2018-05-12T05:17:41.006Z,1012.03
2018-05-12T05:18:40.944Z,1012.02
2018-05-12T05:19:40.841Z,1011.99
2018-05-12T05:20:40.896Z,1012.03
2018-05-12T05:21:40.679Z,1012.08
2018-05-12T05:22:40.677Z,1012.05
2018-05-12T05:23:40.535Z,1012.02
2018-05-12T05:24:41.459Z,1012.04
2018-05-12T05:25:40.356Z,1012.06
2018-05-12T05:26:40.391Z,1012.06
2018-05-12T05:27:40.203Z,1012.04
2018-05-12T05:30:22.534Z,1012.02
2018-05-12T05:31:22.419Z,1011.97
2018-05-12T05:32:22.354Z,1012.03
2018-05-12T05:35:04.524Z,1012.04
2018-05-12T05:36:04.606Z,1012.04
2018-05-12T05:37:04.335Z,1012.07
2018-05-12T05:38:04.258Z,1012.09
2018-05-12T05:39:04.204Z,1012.07
2018-05-12T05:40:04.141Z,1012.08
2018-05-12T05:41:04.024Z,1012.07
2018-05-12T05:43:45.996Z,1012.07
2018-05-12T05:44:45.984Z,1012.11
2018-05-12T05:45:45.848Z,1012.10
2018-05-12T05:46:45.857Z,1012.12
2018-05-12T05:47:45.682Z,1012.13
2018-05-12T05:50:27.528Z,1012.15
2018-05-12T05:51:27.462Z,1012.11
2018-05-12T05:52:27.364Z,1012.14
2018-05-12T05:53:27.365Z,1012.16
2018-05-12T05:54:27.212Z,1012.16
2018-05-12T05:55:28.223Z,1012.14
2018-05-12T05:56:27.041Z,1012.18
2018-05-12T05:57:26.993Z,1012.16
2018-05-12T05:58:26.924Z,1012.20
2018-05-12T06:01:09.080Z,1012.16
2018-05-12T06:02:08.992Z,1012.16
2018-05-12T06:03:08.856Z,1012.21
2018-05-12T06:04:08.843Z,1012.22
2018-05-12T06:05:08.699Z,1012.21
2018-05-12T06:06:09.675Z,1012.17
2018-05-12T06:07:09.213Z,1012.33
2018-05-12T06:08:08.525Z,1012.53
2018-05-12T06:09:08.413Z,1012.67
2018-05-12T06:10:09.409Z,1012.75
2018-05-12T06:11:08.212Z,1012.78
2018-05-12T06:12:08.246Z,1012.74
2018-05-12T06:13:08.057Z,1012.77
2018-05-12T06:15:50.025Z,1012.76
2018-05-12T06:16:50.068Z,1012.80
2018-05-12T06:17:49.855Z,1012.88
2018-05-12T06:18:49.880Z,1012.89
2018-05-12T06:19:49.692Z,1012.90
2018-05-12T06:20:49.695Z,1012.86
2018-05-12T06:21:49.534Z,1012.91
2018-05-12T06:22:49.574Z,1012.91
2018-05-12T06:23:49.378Z,1012.93
2018-05-12T06:24:49.385Z,1013.05
2018-05-12T06:25:49.252Z,1013.02
2018-05-12T06:26:49.222Z,1013.06
2018-05-12T06:27:49.137Z,1013.06
2018-05-12T06:28:49.091Z,1013.07
2018-05-12T06:29:48.914Z,1013.09
2018-05-12T06:30:48.919Z,1013.12
2018-05-12T06:31:48.794Z,1013.12
2018-05-12T06:32:48.816Z,1013.17
2018-05-12T06:33:48.616Z,1013.12
2018-05-12T06:34:48.629Z,1013.10
2018-05-12T06:35:48.468Z,1013.07
2018-05-12T06:36:48.467Z,1013.05
2018-05-12T06:37:48.325Z,1012.98
2018-05-12T06:40:30.547Z,1012.92
2018-05-12T06:41:30.568Z,1012.91
2018-05-12T06:42:30.397Z,1012.91
2018-05-12T06:43:30.360Z,1012.90
2018-05-12T06:44:30.203Z,1012.78
2018-05-12T06:45:30.169Z,1012.87
2018-05-12T06:46:30.083Z,1012.86
2018-05-12T06:47:30.128Z,1012.90
2018-05-12T06:48:29.929Z,1012.84
2018-05-12T06:51:12.011Z,1012.88
2018-05-12T06:52:13.051Z,1012.83
2018-05-12T06:53:11.867Z,1012.85
2018-05-12T06:54:11.887Z,1012.84
2018-05-12T06:55:11.733Z,1012.85
2018-05-12T06:56:11.706Z,1012.93
2018-05-12T06:57:11.600Z,1012.86
2018-05-12T06:58:11.614Z,1012.76
2018-05-12T06:59:11.417Z,1012.81
2018-05-12T07:00:11.427Z,1012.84
2018-05-12T07:01:11.301Z,1012.83
2018-05-12T07:02:11.268Z,1012.77
2018-05-12T07:03:11.136Z,1012.73
2018-05-12T07:04:11.149Z,1012.68
2018-05-12T07:05:10.981Z,1012.70
2018-05-12T07:06:10.945Z,1012.69
2018-05-12T07:07:10.874Z,1012.69
2018-05-12T07:08:10.864Z,1012.70
2018-05-12T07:09:10.692Z,1012.76
2018-05-12T07:10:10.676Z,1012.72
2018-05-12T07:11:10.537Z,1012.70
2018-05-12T07:12:10.541Z,1012.69
2018-05-12T07:13:10.386Z,1012.72
2018-05-12T07:14:10.435Z,1012.71
2018-05-12T07:15:10.247Z,1012.77
2018-05-12T07:16:10.514Z,1012.68
2018-05-12T07:17:10.105Z,1012.66
2018-05-12T07:18:10.655Z,1012.65
2018-05-12T07:19:09.973Z,1012.68
2018-05-12T07:21:52.027Z,1012.57
2018-05-12T07:22:52.054Z,1012.65
2018-05-12T07:23:51.889Z,1012.57
2018-05-12T07:24:51.927Z,1012.58
2018-05-12T07:25:51.738Z,1012.62
2018-05-12T07:26:51.734Z,1012.58
2018-05-12T07:27:51.629Z,1012.53
2018-05-12T07:28:51.786Z,1012.49
2018-05-12T07:29:51.453Z,1012.41
2018-05-12T07:30:51.458Z,1012.43
2018-05-12T07:31:51.298Z,1012.50
2018-05-12T07:34:33.556Z,1012.47
2018-05-12T07:35:33.572Z,1012.53
2018-05-12T07:36:33.416Z,1012.51
2018-05-12T07:37:33.378Z,1012.46
2018-05-12T07:38:33.253Z,1012.46
2018-05-12T07:39:33.324Z,1012.60
2018-05-12T07:40:33.115Z,1012.51
2018-05-12T07:41:33.108Z,1012.51
2018-05-12T07:42:32.955Z,1012.54
2018-05-12T07:43:32.959Z,1012.48
2018-05-12T07:44:32.897Z,1012.41
2018-05-12T07:45:32.830Z,1012.55
2018-05-12T07:46:32.686Z,1012.62
2018-05-12T07:47:32.645Z,1012.61
2018-05-12T07:48:32.538Z,1012.63
2018-05-12T07:49:32.584Z,1012.52
2018-05-12T07:50:32.384Z,1012.47
2018-05-12T07:51:32.381Z,1012.43
2018-05-12T07:52:32.301Z,1012.53
2018-05-12T07:55:14.541Z,1012.70
2018-05-12T07:56:14.578Z,1012.69
2018-05-12T07:57:14.409Z,1012.67
2018-05-12T07:58:14.368Z,1012.64
2018-05-12T07:59:14.295Z,1012.66
2018-05-12T08:00:14.324Z,1012.61
2018-05-12T08:01:14.126Z,1012.55
2018-05-12T08:02:14.096Z,1012.53
2018-05-12T08:03:14.027Z,1012.57
2018-05-12T08:04:14.249Z,1012.50
2018-05-12T08:05:13.867Z,1012.47
2018-05-12T08:06:13.771Z,1012.50
2018-05-12T08:07:13.717Z,1012.45
2018-05-12T08:09:55.595Z,1012.41
2018-05-12T08:10:55.527Z,1012.43
2018-05-12T08:11:55.432Z,1012.27
2018-05-12T08:14:37.579Z,1012.40
2018-05-12T08:15:37.572Z,1012.32
2018-05-12T08:16:37.435Z,1012.35
2018-05-12T08:19:19.574Z,1012.33
2018-05-12T08:22:01.601Z,1012.30
2018-05-12T08:23:01.530Z,1012.32
2018-05-12T08:24:01.447Z,1012.31
2018-05-12T08:25:01.443Z,1012.28
2018-05-12T08:26:01.398Z,1012.31
2018-05-12T08:27:01.310Z,1012.26
2018-05-12T08:28:01.173Z,1012.33
2018-05-12T08:29:01.188Z,1012.29
2018-05-12T08:30:01.010Z,1012.25
2018-05-12T08:31:01.070Z,1012.24
2018-05-12T08:32:00.930Z,1012.23
2018-05-12T08:33:00.888Z,1012.18
2018-05-12T08:34:00.751Z,1012.16
2018-05-12T08:35:00.730Z,1012.12
2018-05-12T08:36:00.613Z,1012.22
2018-05-12T08:37:00.662Z,1012.31
2018-05-12T08:38:00.478Z,1012.33
2018-05-12T08:39:00.533Z,1012.25
2018-05-12T08:40:00.355Z,1012.33
2018-05-12T08:41:00.359Z,1012.34
2018-05-12T08:42:00.296Z,1012.31
2018-05-12T08:43:00.318Z,1012.37
2018-05-12T08:44:00.059Z,1012.28
2018-05-12T08:45:00.035Z,1012.33
2018-05-12T08:45:59.932Z,1012.33
2018-05-12T08:46:59.958Z,1012.33
2018-05-12T08:47:59.801Z,1012.35
2018-05-12T08:48:59.740Z,1012.34
2018-05-12T08:49:59.651Z,1012.25
2018-05-12T08:50:59.671Z,1012.24
2018-05-12T08:51:59.519Z,1012.31
2018-05-12T08:53:00.559Z,1012.35
2018-05-12T08:53:59.370Z,1012.33
2018-05-12T08:54:59.415Z,1012.28
2018-05-12T08:55:59.234Z,1012.22
2018-05-12T08:58:41.199Z,1012.25
2018-05-12T08:59:41.102Z,1012.34
2018-05-12T09:00:40.939Z,1012.31
2018-05-12T09:01:40.915Z,1012.24
2018-05-12T09:02:40.812Z,1012.34
2018-05-12T09:03:40.861Z,1012.19
2018-05-12T09:04:40.673Z,1012.14
2018-05-12T09:05:40.738Z,1012.20
2018-05-12T09:06:40.524Z,1012.19
2018-05-12T09:07:40.540Z,1012.23
2018-05-12T09:08:40.432Z,1012.30
2018-05-12T09:09:40.442Z,1012.22
2018-05-12T09:10:40.289Z,1012.33
2018-05-12T09:11:40.258Z,1012.22
2018-05-12T09:12:40.120Z,1012.25
2018-05-12T09:13:40.195Z,1012.30
2018-05-12T09:14:39.995Z,1012.30
2018-05-12T09:15:40.087Z,1012.04
2018-05-12T09:16:39.858Z,1012.26
2018-05-12T09:17:39.883Z,1012.27
2018-05-12T09:18:39.749Z,1012.27
2018-05-12T09:19:39.685Z,1012.33
2018-05-12T09:20:39.597Z,1012.31
2018-05-12T09:21:39.611Z,1012.36
2018-05-12T09:22:39.450Z,1012.25
2018-05-12T09:23:39.444Z,1012.32
2018-05-12T09:24:39.322Z,1012.34
2018-05-12T09:25:39.417Z,1012.33
2018-05-12T09:26:39.184Z,1012.28
2018-05-12T09:27:39.230Z,1012.16
2018-05-12T09:28:39.092Z,1012.10
2018-05-12T09:29:39.034Z,1012.16
2018-05-12T09:30:38.936Z,1012.12
2018-05-12T09:31:38.957Z,1012.17
2018-05-12T09:32:38.789Z,1012.23
2018-05-12T09:33:38.802Z,1012.20
2018-05-12T09:34:38.703Z,1012.20
2018-05-12T09:35:38.674Z,1012.11
2018-05-12T09:36:38.510Z,1012.13
2018-05-12T09:39:20.619Z,1012.07
2018-05-12T09:42:02.578Z,1011.88
2018-05-12T09:43:02.583Z,1012.00
2018-05-12T09:44:02.458Z,1011.96
2018-05-12T09:45:02.525Z,1012.03
2018-05-12T09:46:02.322Z,1011.96
2018-05-12T09:47:02.361Z,1011.95
2018-05-12T09:48:02.182Z,1011.88
2018-05-12T09:49:02.208Z,1011.88
2018-05-12T09:50:02.124Z,1011.82
2018-05-12T09:51:02.119Z,1011.77
2018-05-12T09:52:02.106Z,1011.69
2018-05-12T09:53:02.026Z,1011.65
2018-05-12T09:54:01.936Z,1011.53
2018-05-12T09:55:01.879Z,1011.65
2018-05-12T09:56:01.655Z,1011.73
2018-05-12T09:57:01.671Z,1011.75
2018-05-12T09:58:01.535Z,1011.60
2018-05-12T09:59:01.463Z,1011.60
2018-05-12T10:00:01.413Z,1011.55
2018-05-12T10:01:01.362Z,1011.65
2018-05-12T10:02:01.259Z,1011.68
2018-05-12T10:03:01.318Z,1011.72
2018-05-12T10:04:01.129Z,1011.72
2018-05-12T10:05:01.182Z,1011.67
2018-05-12T10:06:01.025Z,1011.70
2018-05-12T10:07:00.989Z,1011.69
2018-05-12T10:08:00.864Z,1011.62
2018-05-12T10:09:00.918Z,1011.75
2018-05-12T10:10:00.753Z,1011.64
2018-05-12T10:11:00.754Z,1011.68
2018-05-12T10:12:00.715Z,1011.67
2018-05-12T10:13:00.619Z,1011.66
2018-05-12T10:14:00.450Z,1011.78
2018-05-12T10:15:00.435Z,1011.76
2018-05-12T10:16:00.358Z,1011.72
2018-05-12T10:17:00.377Z,1011.67
2018-05-12T10:18:00.179Z,1011.65
2018-05-12T10:19:00.161Z,1011.74
2018-05-12T10:20:00.050Z,1011.66
2018-05-12T10:21:00.088Z,1011.67
2018-05-12T10:21:59.903Z,1011.52
2018-05-12T10:22:59.977Z,1011.61
2018-05-12T10:23:59.793Z,1011.68
2018-05-12T10:24:59.784Z,1011.61
2018-05-12T10:25:59.656Z,1011.58
2018-05-12T10:26:59.621Z,1011.58
2018-05-12T10:27:59.500Z,1011.48
2018-05-12T10:28:59.497Z,1011.46
2018-05-12T10:29:59.384Z,1011.50
2018-05-12T10:32:41.642Z,1011.50
2018-05-12T10:33:41.610Z,1011.51
2018-05-12T10:34:41.471Z,1011.51
2018-05-12T10:35:41.512Z,1011.40
2018-05-12T10:36:41.345Z,1011.41
2018-05-12T10:39:06.101Z,1011.44
2018-05-12T11:01:03.555Z,1011.08
2018-05-12T11:02:03.348Z,1011.13
2018-05-12T11:03:03.382Z,1011.13
2018-05-12T11:04:03.214Z,1011.12
2018-05-12T11:05:03.237Z,1011.09
2018-05-12T11:06:03.097Z,1011.06
2018-05-12T11:07:03.168Z,1011.08
2018-05-12T11:08:03.017Z,1011.21
2018-05-12T11:09:02.968Z,1011.13
2018-05-12T11:10:02.825Z,1011.12
2018-05-12T11:11:02.885Z,1011.17
2018-05-12T11:12:02.702Z,1011.11
2018-05-12T11:13:02.766Z,1011.07
2018-05-12T11:14:02.575Z,1011.10
2018-05-12T11:15:02.606Z,1010.97
2018-05-12T11:16:02.534Z,1010.94
2018-05-12T11:17:02.516Z,1010.92
2018-05-12T11:18:02.334Z,1011.03
2018-05-12T11:19:02.326Z,1010.88
2018-05-12T11:20:02.182Z,1010.97
2018-05-12T11:21:02.242Z,1010.95
2018-05-12T11:22:02.058Z,1010.94
2018-05-12T11:23:02.078Z,1010.90
2018-05-12T11:24:01.937Z,1010.82
2018-05-12T11:25:01.946Z,1010.84
2018-05-12T11:26:01.792Z,1010.89
2018-05-12T11:27:01.864Z,1010.73
2018-05-12T11:28:01.680Z,1010.69
2018-05-12T11:29:01.682Z,1010.67
2018-05-12T11:30:01.536Z,1010.77
2018-05-12T11:31:01.586Z,1010.78
2018-05-12T11:32:01.473Z,1010.78
2018-05-12T11:33:01.430Z,1010.79
2018-05-12T11:34:01.271Z,1010.73
2018-05-12T11:35:01.314Z,1010.66
2018-05-12T11:36:01.136Z,1010.72
2018-05-12T11:37:01.227Z,1010.74
2018-05-12T11:38:01.025Z,1010.62
2018-05-12T11:39:01.030Z,1010.65
2018-05-12T11:40:00.935Z,1010.62
2018-05-12T11:41:00.934Z,1010.56
2018-05-12T11:42:00.739Z,1010.47
2018-05-12T11:43:00.781Z,1010.37
2018-05-12T11:44:00.605Z,1010.33
2018-05-12T11:45:00.676Z,1010.26
2018-05-12T11:46:00.478Z,1010.27
2018-05-12T11:47:00.563Z,1010.26
2018-05-12T11:48:00.335Z,1010.16
2018-05-12T11:49:00.404Z,1010.21
2018-05-12T11:50:00.232Z,1010.19
2018-05-12T11:51:00.296Z,1010.15
2018-05-12T11:52:00.088Z,1010.17
2018-05-12T11:53:00.094Z,1010.16
2018-05-12T11:53:59.969Z,1010.18
2018-05-12T11:55:00.036Z,1010.09
2018-05-12T11:55:59.803Z,1010.13
2018-05-12T11:56:59.817Z,1010.10
2018-05-12T11:57:59.671Z,1010.11
2018-05-12T11:58:59.733Z,1010.16
2018-05-12T11:59:59.550Z,1010.19
2018-05-12T12:00:59.539Z,1010.08
2018-05-12T12:01:59.384Z,1010.08
2018-05-12T12:02:59.468Z,1010.16
2018-05-12T12:03:59.319Z,1010.07
2018-05-12T12:04:59.290Z,1010.14
2018-05-12T12:05:59.115Z,1010.12
2018-05-12T12:06:59.166Z,1010.07
2018-05-12T12:07:58.971Z,1010.09
2018-05-12T12:08:58.970Z,1010.06
2018-05-12T12:09:58.844Z,1010.06
2018-05-12T12:10:58.897Z,1010.03
2018-05-12T12:11:58.692Z,1010.03
2018-05-12T12:12:58.725Z,1009.96
2018-05-12T12:13:58.548Z,1009.94
2018-05-12T12:14:58.645Z,1009.88
2018-05-12T12:15:58.437Z,1009.90
2018-05-12T12:16:58.366Z,1009.92
2018-05-12T12:17:58.286Z,1009.89
2018-05-12T12:18:58.279Z,1009.94
2018-05-12T12:19:58.185Z,1009.93
2018-05-12T12:20:58.132Z,1009.94
2018-05-12T12:21:57.980Z,1009.88
2018-05-12T12:22:58.012Z,1009.92
2018-05-12T12:23:57.838Z,1009.93
2018-05-12T12:24:57.845Z,1009.95
2018-05-12T12:25:57.720Z,1009.93
2018-05-12T12:26:57.713Z,1009.97
2018-05-12T12:27:57.572Z,1009.95
2018-05-12T12:28:57.530Z,1009.89
2018-05-12T12:29:57.453Z,1009.93
2018-05-12T12:30:57.470Z,1009.93
2018-05-12T12:31:57.255Z,1009.97
2018-05-12T12:32:57.251Z,1009.92
2018-05-12T12:33:57.112Z,1009.91
2018-05-12T12:34:57.152Z,1009.86
2018-05-12T12:35:56.979Z,1009.93
2018-05-12T12:36:56.980Z,1009.83
2018-05-12T12:37:56.826Z,1009.93
2018-05-12T12:38:56.876Z,1009.92
2018-05-12T12:39:56.680Z,1009.82
2018-05-12T12:40:56.717Z,1009.82
2018-05-12T12:41:56.544Z,1009.81
2018-05-12T12:42:56.494Z,1009.79
2018-05-12T12:43:56.378Z,1009.74
2018-05-12T12:46:38.693Z,1009.68
2018-05-12T12:49:20.660Z,1009.67
2018-05-12T12:50:20.702Z,1009.65
2018-05-12T12:51:20.537Z,1009.59
2018-05-12T12:52:20.503Z,1009.60
2018-05-12T12:53:20.356Z,1009.63
2018-05-12T12:56:02.647Z,1009.55
2018-05-12T12:57:02.668Z,1009.61
2018-05-12T12:59:27.151Z,1009.56
2018-05-12T13:00:27.156Z,1009.54
2018-05-12T13:01:27.017Z,1009.51
2018-05-12T13:02:27.025Z,1009.46
2018-05-12T13:03:26.859Z,1009.45
2018-05-12T13:04:26.838Z,1009.45
2018-05-12T13:05:26.762Z,1009.38
2018-05-12T13:06:26.750Z,1009.57
2018-05-12T13:07:26.596Z,1009.44
2018-05-12T13:08:26.557Z,1009.37
2018-05-12T13:09:26.434Z,1009.37
2018-05-12T13:10:26.464Z,1009.37
2018-05-12T13:11:26.298Z,1009.39
2018-05-12T13:12:26.313Z,1009.34
2018-05-12T13:13:26.142Z,1009.28
2018-05-12T13:14:26.179Z,1009.28
2018-05-12T13:15:25.981Z,1009.27
2018-05-12T13:16:25.993Z,1009.25
2018-05-12T13:17:25.907Z,1009.28
2018-05-12T13:18:25.852Z,1009.31
2018-05-12T13:19:25.705Z,1009.25
2018-05-12T13:20:25.729Z,1009.23
2018-05-12T13:21:25.548Z,1009.24
2018-05-12T13:22:25.519Z,1009.22
2018-05-12T13:23:25.436Z,1009.20
2018-05-12T13:24:25.438Z,1009.21
2018-05-12T13:25:25.263Z,1009.18
2018-05-12T13:26:25.248Z,1009.26
2018-05-12T13:27:25.128Z,1009.16
2018-05-12T13:28:26.123Z,1009.15
2018-05-12T13:29:24.972Z,1009.13
2018-05-12T13:30:24.964Z,1009.08
2018-05-12T13:31:24.826Z,1008.99
2018-05-12T13:32:24.915Z,1009.03
2018-05-12T13:33:24.700Z,1009.08
2018-05-12T13:34:24.672Z,1009.03
2018-05-12T13:35:24.548Z,1009.08
2018-05-12T13:36:24.483Z,1009.07
2018-05-12T13:37:24.401Z,1009.04
2018-05-12T13:38:24.524Z,1009.12
2018-05-12T13:39:24.245Z,1009.06
2018-05-12T13:40:24.216Z,1009.09
2018-05-12T13:41:24.085Z,1009.03
2018-05-12T13:42:24.120Z,1009.03
2018-05-12T13:43:23.962Z,1009.04
2018-05-12T13:44:23.961Z,1009.01
2018-05-12T13:45:23.817Z,1009.02
2018-05-12T13:48:05.688Z,1008.98
2018-05-12T13:49:05.675Z,1008.91